sensor_id;sensor_type;location;lat;lon;timestamp;pressure;altitude;pressure_sealevel;temperature;humidity
46690;BME280;32423;45.398;10.874;2023-04-07T00:01:36;100831.78;;;11.06;36.80
46690;BME280;32423;45.398;10.874;2023-04-07T00:04:31;100825.03;;;11.04;36.56
46690;BME280;32423;45.398;10.874;2023-04-07T00:07:26;100819.28;;;11.05;36.50
46690;BME280;32423;45.398;10.874;2023-04-07T00:10:20;100817.81;;;10.99;36.84
46690;BME280;32423;45.398;10.874;2023-04-07T00:13:15;100815.25;;;11.03;37.10
46690;BME280;32423;45.398;10.874;2023-04-07T00:16:10;100812.38;;;10.99;37.26
46690;BME280;32423;45.398;10.874;2023-04-07T00:19:05;100812.66;;;10.89;37.28
46690;BME280;32423;45.398;10.874;2023-04-07T00:21:59;100827.22;;;10.93;37.62
46690;BME280;32423;45.398;10.874;2023-04-07T00:24:54;100819.72;;;10.90;38.04
46690;BME280;32423;45.398;10.874;2023-04-07T00:27:48;100814.56;;;10.80;38.71
46690;BME280;32423;45.398;10.874;2023-04-07T00:30:40;100810.09;;;10.84;38.37
46690;BME280;32423;45.398;10.874;2023-04-07T00:33:35;100816.31;;;10.85;38.41
46690;BME280;32423;45.398;10.874;2023-04-07T00:36:30;100811.69;;;10.85;38.38
46690;BME280;32423;45.398;10.874;2023-04-07T00:39:23;100821.63;;;10.90;38.16
46690;BME280;32423;45.398;10.874;2023-04-07T00:42:15;100810.75;;;10.90;38.13
46690;BME280;32423;45.398;10.874;2023-04-07T00:45:10;100815.53;;;10.84;38.03
46690;BME280;32423;45.398;10.874;2023-04-07T00:48:04;100810.72;;;10.81;38.33
46690;BME280;32423;45.398;10.874;2023-04-07T00:50:59;100804.19;;;10.91;38.32
46690;BME280;32423;45.398;10.874;2023-04-07T00:53:51;100802.72;;;10.85;38.51
46690;BME280;32423;45.398;10.874;2023-04-07T00:56:46;100802.59;;;10.90;38.13
46690;BME280;32423;45.398;10.874;2023-04-07T00:59:40;100803.22;;;10.87;38.53
46690;BME280;32423;45.398;10.874;2023-04-07T01:03:35;100803.84;;;10.84;38.95
46690;BME280;32423;45.398;10.874;2023-04-07T01:06:02;100795.81;;;10.79;39.59
46690;BME280;32423;45.398;10.874;2023-04-07T01:09:03;100789.56;;;10.78;39.88
46690;BME280;32423;45.398;10.874;2023-04-07T01:11:59;100797.72;;;10.78;39.58
46690;BME280;32423;45.398;10.874;2023-04-07T01:14:57;100790.31;;;10.61;40.55
46690;BME280;32423;45.398;10.874;2023-04-07T01:18:10;100786.81;;;10.61;40.74
46690;BME280;32423;45.398;10.874;2023-04-07T01:21:07;100792.53;;;10.59;40.71
46690;BME280;32423;45.398;10.874;2023-04-07T01:27:20;100788.16;;;10.41;41.18
46690;BME280;32423;45.398;10.874;2023-04-07T01:30:19;100797.81;;;10.56;40.99
46690;BME280;32423;45.398;10.874;2023-04-07T01:33:17;100792.53;;;10.59;40.85
46690;BME280;32423;45.398;10.874;2023-04-07T01:36:11;100793.06;;;10.70;40.55
46690;BME280;32423;45.398;10.874;2023-04-07T01:39:07;100796.09;;;10.68;40.98
46690;BME280;32423;45.398;10.874;2023-04-07T01:42:02;100793.00;;;10.53;40.98
46690;BME280;32423;45.398;10.874;2023-04-07T01:45:00;100787.41;;;10.58;41.12
46690;BME280;32423;45.398;10.874;2023-04-07T01:47:52;100789.31;;;10.57;40.96
46690;BME280;32423;45.398;10.874;2023-04-07T01:50:47;100788.19;;;10.50;41.22
46690;BME280;32423;45.398;10.874;2023-04-07T01:53:42;100790.91;;;10.50;41.27
46690;BME280;32423;45.398;10.874;2023-04-07T01:56:36;100787.69;;;10.48;41.32
46690;BME280;32423;45.398;10.874;2023-04-07T01:59:31;100786.72;;;10.44;41.33
46690;BME280;32423;45.398;10.874;2023-04-07T02:02:26;100788.00;;;10.46;41.07
46690;BME280;32423;45.398;10.874;2023-04-07T02:05:22;100787.47;;;10.36;41.43
46690;BME280;32423;45.398;10.874;2023-04-07T02:08:13;100782.50;;;10.38;40.91
46690;BME280;32423;45.398;10.874;2023-04-07T02:11:10;100784.38;;;10.28;41.33
46690;BME280;32423;45.398;10.874;2023-04-07T02:14:07;100791.56;;;10.24;41.62
46690;BME280;32423;45.398;10.874;2023-04-07T02:17:20;100787.53;;;10.22;41.43
46690;BME280;32423;45.398;10.874;2023-04-07T02:20:16;100785.56;;;10.36;41.11
46690;BME280;32423;45.398;10.874;2023-04-07T02:23:10;100777.41;;;10.36;40.72
46690;BME280;32423;45.398;10.874;2023-04-07T02:26:04;100790.66;;;10.38;40.86
46690;BME280;32423;45.398;10.874;2023-04-07T02:28:57;100788.34;;;10.22;41.34
46690;BME280;32423;45.398;10.874;2023-04-07T02:31:49;100792.69;;;10.23;41.33
46690;BME280;32423;45.398;10.874;2023-04-07T02:34:43;100789.28;;;10.18;41.71
46690;BME280;32423;45.398;10.874;2023-04-07T02:37:38;100783.03;;;10.17;41.09
46690;BME280;32423;45.398;10.874;2023-04-07T02:40:32;100785.50;;;10.27;40.81
46690;BME280;32423;45.398;10.874;2023-04-07T02:43:27;100784.16;;;10.16;41.13
46690;BME280;32423;45.398;10.874;2023-04-07T02:46:22;100790.00;;;10.10;41.14
46690;BME280;32423;45.398;10.874;2023-04-07T02:49:16;100783.78;;;10.09;41.24
46690;BME280;32423;45.398;10.874;2023-04-07T02:52:11;100783.88;;;10.26;40.65
46690;BME280;32423;45.398;10.874;2023-04-07T02:55:06;100782.66;;;10.33;40.42
46690;BME280;32423;45.398;10.874;2023-04-07T02:58:00;100778.59;;;10.21;40.18
46690;BME280;32423;45.398;10.874;2023-04-07T03:01:01;100785.31;;;10.24;40.16
46690;BME280;32423;45.398;10.874;2023-04-07T03:03:55;100777.47;;;10.22;40.07
46690;BME280;32423;45.398;10.874;2023-04-07T03:06:50;100771.75;;;10.24;40.16
46690;BME280;32423;45.398;10.874;2023-04-07T03:09:44;100773.78;;;10.18;39.91
46690;BME280;32423;45.398;10.874;2023-04-07T03:12:39;100780.31;;;10.17;39.90
46690;BME280;32423;45.398;10.874;2023-04-07T03:15:34;100782.09;;;10.22;39.81
46690;BME280;32423;45.398;10.874;2023-04-07T03:18:26;100784.66;;;10.18;39.82
46690;BME280;32423;45.398;10.874;2023-04-07T03:21:21;100772.06;;;10.31;39.56
46690;BME280;32423;45.398;10.874;2023-04-07T03:24:15;100775.41;;;10.19;39.49
46690;BME280;32423;45.398;10.874;2023-04-07T03:27:10;100771.94;;;10.05;39.76
46690;BME280;32423;45.398;10.874;2023-04-07T03:30:12;100767.59;;;10.04;40.01
46690;BME280;32423;45.398;10.874;2023-04-07T03:33:07;100767.72;;;9.99;40.17
46690;BME280;32423;45.398;10.874;2023-04-07T03:35:59;100758.72;;;9.90;40.36
46690;BME280;32423;45.398;10.874;2023-04-07T03:38:51;100764.63;;;9.92;39.83
46690;BME280;32423;45.398;10.874;2023-04-07T03:41:45;100769.25;;;9.92;39.90
46690;BME280;32423;45.398;10.874;2023-04-07T03:44:37;100770.56;;;9.94;40.01
46690;BME280;32423;45.398;10.874;2023-04-07T03:47:33;100772.06;;;10.00;39.77
46690;BME280;32423;45.398;10.874;2023-04-07T03:50:27;100768.16;;;9.93;40.08
46690;BME280;32423;45.398;10.874;2023-04-07T03:53:29;100763.16;;;9.86;40.12
46690;BME280;32423;45.398;10.874;2023-04-07T03:56:25;100753.84;;;9.78;40.50
46690;BME280;32423;45.398;10.874;2023-04-07T03:59:20;100762.22;;;9.68;40.18
46690;BME280;32423;45.398;10.874;2023-04-07T04:02:21;100768.09;;;9.84;39.76
46690;BME280;32423;45.398;10.874;2023-04-07T04:05:17;100760.00;;;9.70;39.97
46690;BME280;32423;45.398;10.874;2023-04-07T04:08:11;100767.25;;;9.75;40.26
46690;BME280;32423;45.398;10.874;2023-04-07T04:11:06;100760.78;;;9.71;40.33
46690;BME280;32423;45.398;10.874;2023-04-07T04:14:06;100755.38;;;9.71;40.47
46690;BME280;32423;45.398;10.874;2023-04-07T04:16:58;100768.47;;;9.69;40.51
46690;BME280;32423;45.398;10.874;2023-04-07T04:19:58;100762.94;;;9.60;40.33
46690;BME280;32423;45.398;10.874;2023-04-07T04:23:00;100763.75;;;9.61;40.72
46690;BME280;32423;45.398;10.874;2023-04-07T04:25:56;100760.47;;;9.50;40.58
46690;BME280;32423;45.398;10.874;2023-04-07T04:28:51;100755.38;;;9.49;40.29
46690;BME280;32423;45.398;10.874;2023-04-07T04:31:46;100766.94;;;9.40;41.12
46690;BME280;32423;45.398;10.874;2023-04-07T04:34:38;100768.53;;;9.41;40.69
46690;BME280;32423;45.398;10.874;2023-04-07T04:37:32;100768.97;;;9.35;40.99
46690;BME280;32423;45.398;10.874;2023-04-07T04:40:27;100760.03;;;9.34;40.75
46690;BME280;32423;45.398;10.874;2023-04-07T04:43:23;100758.59;;;9.37;40.82
46690;BME280;32423;45.398;10.874;2023-04-07T04:46:17;100762.88;;;9.29;40.78
46690;BME280;32423;45.398;10.874;2023-04-07T04:49:12;100768.47;;;9.33;40.56
46690;BME280;32423;45.398;10.874;2023-04-07T04:52:06;100770.78;;;9.26;40.89
46690;BME280;32423;45.398;10.874;2023-04-07T04:55:01;100770.78;;;9.26;41.69
46690;BME280;32423;45.398;10.874;2023-04-07T04:57:55;100780.34;;;9.23;40.93
46690;BME280;32423;45.398;10.874;2023-04-07T05:00:58;100778.41;;;9.37;40.68
46690;BME280;32423;45.398;10.874;2023-04-07T05:04:00;100772.28;;;9.32;40.81
46690;BME280;32423;45.398;10.874;2023-04-07T05:06:54;100768.09;;;9.26;40.67
46690;BME280;32423;45.398;10.874;2023-04-07T05:09:50;100770.91;;;9.34;40.70
46690;BME280;32423;45.398;10.874;2023-04-07T05:12:45;100756.94;;;9.27;40.66
46690;BME280;32423;45.398;10.874;2023-04-07T05:15:40;100761.97;;;9.20;41.34
46690;BME280;32423;45.398;10.874;2023-04-07T05:18:34;100765.50;;;9.07;41.62
46690;BME280;32423;45.398;10.874;2023-04-07T05:21:29;100766.31;;;9.08;42.08
46690;BME280;32423;45.398;10.874;2023-04-07T05:24:25;100767.50;;;9.15;41.75
46690;BME280;32423;45.398;10.874;2023-04-07T05:27:20;100767.00;;;9.13;42.13
46690;BME280;32423;45.398;10.874;2023-04-07T05:30:16;100759.97;;;9.12;42.16
46690;BME280;32423;45.398;10.874;2023-04-07T05:33:11;100758.94;;;9.22;42.47
46690;BME280;32423;45.398;10.874;2023-04-07T05:36:10;100756.41;;;9.25;42.43
46690;BME280;32423;45.398;10.874;2023-04-07T05:39:03;100746.78;;;9.33;42.42
46690;BME280;32423;45.398;10.874;2023-04-07T05:41:57;100752.56;;;9.40;42.40
46690;BME280;32423;45.398;10.874;2023-04-07T05:44:52;100754.84;;;9.47;42.58
46690;BME280;32423;45.398;10.874;2023-04-07T05:47:46;100748.84;;;9.50;42.73
46690;BME280;32423;45.398;10.874;2023-04-07T05:50:39;100749.53;;;9.41;42.78
46690;BME280;32423;45.398;10.874;2023-04-07T05:53:35;100751.63;;;9.58;41.87
46690;BME280;32423;45.398;10.874;2023-04-07T05:56:30;100750.75;;;9.71;41.24
46690;BME280;32423;45.398;10.874;2023-04-07T05:59:25;100752.66;;;9.93;40.96
46690;BME280;32423;45.398;10.874;2023-04-07T06:02:20;100742.22;;;10.09;40.99
46690;BME280;32423;45.398;10.874;2023-04-07T06:05:12;100749.69;;;10.25;40.37
46690;BME280;32423;45.398;10.874;2023-04-07T06:08:04;100751.13;;;10.32;40.67
46690;BME280;32423;45.398;10.874;2023-04-07T06:10:58;100744.53;;;10.46;40.47
46690;BME280;32423;45.398;10.874;2023-04-07T06:13:53;100749.47;;;10.53;40.06
46690;BME280;32423;45.398;10.874;2023-04-07T06:16:47;100745.53;;;10.67;39.91
46690;BME280;32423;45.398;10.874;2023-04-07T06:19:42;100744.78;;;10.84;39.45
46690;BME280;32423;45.398;10.874;2023-04-07T06:22:37;100744.00;;;10.92;39.09
46690;BME280;32423;45.398;10.874;2023-04-07T06:25:31;100747.53;;;10.93;39.63
46690;BME280;32423;45.398;10.874;2023-04-07T06:28:26;100752.38;;;11.04;39.84
46690;BME280;32423;45.398;10.874;2023-04-07T06:31:21;100756.25;;;11.12;40.04
46690;BME280;32423;45.398;10.874;2023-04-07T06:34:18;100753.53;;;11.21;40.59
46690;BME280;32423;45.398;10.874;2023-04-07T06:37:12;100757.06;;;11.47;42.67
46690;BME280;32423;45.398;10.874;2023-04-07T06:40:08;100750.03;;;11.46;41.10
46690;BME280;32423;45.398;10.874;2023-04-07T06:43:00;100760.88;;;11.63;40.45
46690;BME280;32423;45.398;10.874;2023-04-07T06:46:05;100766.88;;;11.82;40.98
46690;BME280;32423;45.398;10.874;2023-04-07T06:49:00;100757.06;;;11.98;40.60
46690;BME280;32423;45.398;10.874;2023-04-07T06:51:54;100758.31;;;12.10;38.91
46690;BME280;32423;45.398;10.874;2023-04-07T06:54:47;100764.22;;;12.20;38.31
46690;BME280;32423;45.398;10.874;2023-04-07T06:57:40;100763.72;;;12.27;38.67
46690;BME280;32423;45.398;10.874;2023-04-07T07:00:32;100770.44;;;12.38;37.98
46690;BME280;32423;45.398;10.874;2023-04-07T07:03:32;100763.47;;;12.58;37.26
46690;BME280;32423;45.398;10.874;2023-04-07T07:06:24;100764.91;;;12.55;37.20
46690;BME280;32423;45.398;10.874;2023-04-07T07:09:16;100760.41;;;12.59;36.38
46690;BME280;32423;45.398;10.874;2023-04-07T07:12:11;100763.09;;;12.68;36.27
46690;BME280;32423;45.398;10.874;2023-04-07T07:15:03;100759.16;;;12.86;35.97
46690;BME280;32423;45.398;10.874;2023-04-07T07:17:58;100749.03;;;15.17;33.99
46690;BME280;32423;45.398;10.874;2023-04-07T07:20:52;100753.00;;;17.60;31.89
46690;BME280;32423;45.398;10.874;2023-04-07T07:23:47;100757.00;;;15.10;30.74
46690;BME280;32423;45.398;10.874;2023-04-07T07:26:42;100753.47;;;15.21;35.31
46690;BME280;32423;45.398;10.874;2023-04-07T07:29:36;100743.47;;;14.77;33.59
46690;BME280;32423;45.398;10.874;2023-04-07T07:32:31;100751.78;;;14.11;33.35
46690;BME280;32423;45.398;10.874;2023-04-07T07:35:28;100748.56;;;14.42;34.73
46690;BME280;32423;45.398;10.874;2023-04-07T07:38:23;100750.75;;;13.83;33.65
46690;BME280;32423;45.398;10.874;2023-04-07T07:41:18;100752.28;;;13.92;32.84
46690;BME280;32423;45.398;10.874;2023-04-07T07:44:13;100754.91;;;13.89;32.42
46690;BME280;32423;45.398;10.874;2023-04-07T07:47:02;100759.53;;;13.76;33.49
46690;BME280;32423;45.398;10.874;2023-04-07T07:49:56;100757.94;;;13.54;33.67
46690;BME280;32423;45.398;10.874;2023-04-07T07:52:51;100749.38;;;14.54;32.17
46690;BME280;32423;45.398;10.874;2023-04-07T07:55:46;100756.78;;;16.54;28.78
46690;BME280;32423;45.398;10.874;2023-04-07T07:58:38;100765.34;;;16.37;30.85
46690;BME280;32423;45.398;10.874;2023-04-07T08:01:32;100757.81;;;16.18;31.72
46690;BME280;32423;45.398;10.874;2023-04-07T08:04:27;100760.22;;;16.19;32.39
46690;BME280;32423;45.398;10.874;2023-04-07T08:07:21;100761.78;;;18.72;28.01
46690;BME280;32423;45.398;10.874;2023-04-07T08:10:16;100754.84;;;18.82;25.29
46690;BME280;32423;45.398;10.874;2023-04-07T08:13:11;100752.16;;;18.59;25.39
46690;BME280;32423;45.398;10.874;2023-04-07T08:16:05;100762.91;;;17.64;26.74
46690;BME280;32423;45.398;10.874;2023-04-07T08:19:00;100758.13;;;16.91;29.27
46690;BME280;32423;45.398;10.874;2023-04-07T08:21:54;100766.69;;;16.43;29.13
46690;BME280;32423;45.398;10.874;2023-04-07T08:24:46;100770.56;;;15.30;29.71
46690;BME280;32423;45.398;10.874;2023-04-07T08:27:41;100773.28;;;15.30;30.07
46690;BME280;32423;45.398;10.874;2023-04-07T08:30:35;100768.16;;;15.29;30.49
46690;BME280;32423;45.398;10.874;2023-04-07T08:33:29;100763.28;;;14.49;31.97
46690;BME280;32423;45.398;10.874;2023-04-07T08:36:24;100773.78;;;17.41;28.13
46690;BME280;32423;45.398;10.874;2023-04-07T08:39:19;100772.03;;;18.29;26.26
46690;BME280;32423;45.398;10.874;2023-04-07T08:42:13;100773.09;;;17.83;26.19
46690;BME280;32423;45.398;10.874;2023-04-07T08:45:06;100771.78;;;16.72;28.13
46690;BME280;32423;45.398;10.874;2023-04-07T08:48:00;100768.00;;;16.17;28.43
46690;BME280;32423;45.398;10.874;2023-04-07T08:50:56;100761.00;;;16.36;28.73
46690;BME280;32423;45.398;10.874;2023-04-07T08:53:55;100760.13;;;16.47;29.35
46690;BME280;32423;45.398;10.874;2023-04-07T08:56:51;100762.44;;;15.86;30.09
46690;BME280;32423;45.398;10.874;2023-04-07T08:59:45;100764.13;;;14.29;32.70
46690;BME280;32423;45.398;10.874;2023-04-07T09:02:40;100761.03;;;14.76;30.86
46690;BME280;32423;45.398;10.874;2023-04-07T09:05:33;100756.66;;;15.11;31.07
46690;BME280;32423;45.398;10.874;2023-04-07T09:08:27;100742.25;;;15.26;31.32
46690;BME280;32423;45.398;10.874;2023-04-07T09:11:22;100751.19;;;17.67;27.79
46690;BME280;32423;45.398;10.874;2023-04-07T09:14:16;100750.16;;;16.55;29.24
46690;BME280;32423;45.398;10.874;2023-04-07T09:17:11;100743.75;;;16.19;30.35
46690;BME280;32423;45.398;10.874;2023-04-07T09:20:05;100741.78;;;16.04;30.28
46690;BME280;32423;45.398;10.874;2023-04-07T09:23:00;100744.66;;;15.96;30.64
46690;BME280;32423;45.398;10.874;2023-04-07T09:25:52;100734.50;;;15.96;31.04
46690;BME280;32423;45.398;10.874;2023-04-07T09:28:47;100737.84;;;15.90;30.07
46690;BME280;32423;45.398;10.874;2023-04-07T09:31:51;100721.75;;;15.88;30.26
46690;BME280;32423;45.398;10.874;2023-04-07T09:34:46;100726.41;;;16.47;30.02
46690;BME280;32423;45.398;10.874;2023-04-07T09:37:38;100723.38;;;16.52;27.82
46690;BME280;32423;45.398;10.874;2023-04-07T09:40:33;100726.91;;;16.05;27.34
46690;BME280;32423;45.398;10.874;2023-04-07T09:43:27;100726.66;;;15.55;27.57
46690;BME280;32423;45.398;10.874;2023-04-07T09:46:22;100727.53;;;15.71;27.64
46690;BME280;32423;45.398;10.874;2023-04-07T09:49:16;100719.22;;;16.89;26.17
46690;BME280;32423;45.398;10.874;2023-04-07T09:52:11;100723.84;;;16.38;28.08
46690;BME280;32423;45.398;10.874;2023-04-07T09:55:07;100718.66;;;16.05;29.03
46690;BME280;32423;45.398;10.874;2023-04-07T09:58:01;100715.16;;;15.77;29.24
46690;BME280;32423;45.398;10.874;2023-04-07T10:00:54;100719.63;;;15.54;29.41
46690;BME280;32423;45.398;10.874;2023-04-07T10:03:49;100714.13;;;15.54;28.34
46690;BME280;32423;45.398;10.874;2023-04-07T10:06:43;100705.94;;;16.13;27.45
46690;BME280;32423;45.398;10.874;2023-04-07T10:09:35;100706.19;;;15.92;26.28
46690;BME280;32423;45.398;10.874;2023-04-07T10:12:31;100698.06;;;16.43;26.01
46690;BME280;32423;45.398;10.874;2023-04-07T10:15:26;100696.66;;;17.53;24.10
46690;BME280;32423;45.398;10.874;2023-04-07T10:18:21;100704.53;;;17.93;24.33
46690;BME280;32423;45.398;10.874;2023-04-07T10:21:13;100692.25;;;17.49;24.87
46690;BME280;32423;45.398;10.874;2023-04-07T10:24:29;100690.94;;;17.24;24.17
46690;BME280;32423;45.398;10.874;2023-04-07T10:30:41;100694.19;;;16.75;25.45
46690;BME280;32423;45.398;10.874;2023-04-07T10:33:53;100693.72;;;16.26;26.42
46690;BME280;32423;45.398;10.874;2023-04-07T10:37:09;100688.75;;;16.00;27.06
46690;BME280;32423;45.398;10.874;2023-04-07T10:43:37;100684.81;;;16.45;26.86
46690;BME280;32423;45.398;10.874;2023-04-07T10:47:05;100678.59;;;16.63;25.92
46690;BME280;32423;45.398;10.874;2023-04-07T10:50:27;100684.63;;;17.04;27.21
46690;BME280;32423;45.398;10.874;2023-04-07T10:53:21;100678.03;;;17.08;25.99
46690;BME280;32423;45.398;10.874;2023-04-07T10:56:14;100671.44;;;16.59;25.78
46690;BME280;32423;45.398;10.874;2023-04-07T10:59:15;100667.81;;;16.23;26.11
46690;BME280;32423;45.398;10.874;2023-04-07T11:05:09;100665.38;;;15.91;27.25
46690;BME280;32423;45.398;10.874;2023-04-07T11:08:12;100663.06;;;15.77;26.64
46690;BME280;32423;45.398;10.874;2023-04-07T11:11:08;100662.09;;;15.69;27.18
46690;BME280;32423;45.398;10.874;2023-04-07T11:14:03;100672.59;;;15.67;27.38
46690;BME280;32423;45.398;10.874;2023-04-07T11:16:58;100661.72;;;15.71;27.73
46690;BME280;32423;45.398;10.874;2023-04-07T11:19:56;100661.94;;;15.78;27.73
46690;BME280;32423;45.398;10.874;2023-04-07T11:23:00;100660.53;;;15.84;27.96
46690;BME280;32423;45.398;10.874;2023-04-07T11:26:00;100657.41;;;15.86;27.80
46690;BME280;32423;45.398;10.874;2023-04-07T11:28:56;100655.03;;;15.84;27.96
46690;BME280;32423;45.398;10.874;2023-04-07T11:31:50;100649.66;;;15.88;27.64
46690;BME280;32423;45.398;10.874;2023-04-07T11:34:42;100651.94;;;15.86;27.54
46690;BME280;32423;45.398;10.874;2023-04-07T11:37:34;100653.63;;;15.90;28.00
46690;BME280;32423;45.398;10.874;2023-04-07T11:40:36;100649.38;;;15.93;27.18
46690;BME280;32423;45.398;10.874;2023-04-07T11:43:30;100651.06;;;15.97;27.17
46690;BME280;32423;45.398;10.874;2023-04-07T11:46:25;100649.22;;;16.01;25.82
46690;BME280;32423;45.398;10.874;2023-04-07T11:49:19;100634.44;;;16.06;25.91
46690;BME280;32423;45.398;10.874;2023-04-07T11:52:14;100633.75;;;16.09;26.21
46690;BME280;32423;45.398;10.874;2023-04-07T11:55:17;100638.34;;;16.05;27.21
46690;BME280;32423;45.398;10.874;2023-04-07T11:58:12;100629.75;;;16.06;27.31
46690;BME280;32423;45.398;10.874;2023-04-07T12:01:07;100634.88;;;16.23;27.82
46690;BME280;32423;45.398;10.874;2023-04-07T12:04:03;100635.31;;;16.25;27.79
46690;BME280;32423;45.398;10.874;2023-04-07T12:07:06;100629.94;;;16.29;28.01
46690;BME280;32423;45.398;10.874;2023-04-07T12:10:17;100633.09;;;16.31;28.19
46690;BME280;32423;45.398;10.874;2023-04-07T12:13:11;100626.03;;;16.30;28.47
46690;BME280;32423;45.398;10.874;2023-04-07T12:16:06;100625.41;;;16.21;27.93
46690;BME280;32423;45.398;10.874;2023-04-07T12:18:58;100620.81;;;16.25;28.20
46690;BME280;32423;45.398;10.874;2023-04-07T12:21:52;100623.91;;;16.23;28.13
46690;BME280;32423;45.398;10.874;2023-04-07T12:24:47;100618.34;;;16.20;27.60
46690;BME280;32423;45.398;10.874;2023-04-07T12:27:42;100618.41;;;16.23;27.63
46690;BME280;32423;45.398;10.874;2023-04-07T12:30:36;100621.69;;;16.29;27.75
46690;BME280;32423;45.398;10.874;2023-04-07T12:33:27;100625.31;;;16.33;27.62
46690;BME280;32423;45.398;10.874;2023-04-07T12:36:16;100620.53;;;16.30;27.20
46690;BME280;32423;45.398;10.874;2023-04-07T12:39:11;100613.88;;;16.31;27.28
46690;BME280;32423;45.398;10.874;2023-04-07T12:42:05;100619.09;;;16.36;27.06
46690;BME280;32423;45.398;10.874;2023-04-07T12:45:00;100618.16;;;16.29;27.09
46690;BME280;32423;45.398;10.874;2023-04-07T12:47:55;100616.19;;;16.29;26.90
46690;BME280;32423;45.398;10.874;2023-04-07T12:50:49;100611.59;;;16.33;26.69
46690;BME280;32423;45.398;10.874;2023-04-07T12:53:44;100603.44;;;16.37;26.53
46690;BME280;32423;45.398;10.874;2023-04-07T12:56:39;100604.94;;;16.34;26.50
46690;BME280;32423;45.398;10.874;2023-04-07T12:59:33;100605.31;;;16.33;26.68
46690;BME280;32423;45.398;10.874;2023-04-07T13:02:27;100595.31;;;16.24;26.85
46690;BME280;32423;45.398;10.874;2023-04-07T13:05:22;100599.63;;;16.25;27.11
46690;BME280;32423;45.398;10.874;2023-04-07T13:08:17;100587.75;;;16.37;26.84
46690;BME280;32423;45.398;10.874;2023-04-07T13:11:11;100592.72;;;16.32;26.93
46690;BME280;32423;45.398;10.874;2023-04-07T13:14:03;100593.94;;;16.50;26.50
46690;BME280;32423;45.398;10.874;2023-04-07T13:16:58;100594.66;;;16.47;26.66
46690;BME280;32423;45.398;10.874;2023-04-07T13:19:50;100587.34;;;16.35;26.82
46690;BME280;32423;45.398;10.874;2023-04-07T13:22:44;100595.47;;;16.32;26.89
46690;BME280;32423;45.398;10.874;2023-04-07T13:25:39;100593.78;;;16.27;26.77
46690;BME280;32423;45.398;10.874;2023-04-07T13:28:34;100595.13;;;16.33;26.68
46690;BME280;32423;45.398;10.874;2023-04-07T13:31:26;100592.19;;;16.26;26.76
46690;BME280;32423;45.398;10.874;2023-04-07T13:34:20;100587.63;;;16.30;26.97
46690;BME280;32423;45.398;10.874;2023-04-07T13:37:15;100592.72;;;16.32;26.76
46690;BME280;32423;45.398;10.874;2023-04-07T13:40:08;100587.25;;;16.32;26.82
46690;BME280;32423;45.398;10.874;2023-04-07T13:43:00;100577.94;;;16.36;26.80
46690;BME280;32423;45.398;10.874;2023-04-07T13:45:52;100580.91;;;16.47;26.77
46690;BME280;32423;45.398;10.874;2023-04-07T13:48:45;100575.06;;;16.48;26.77
46690;BME280;32423;45.398;10.874;2023-04-07T13:51:39;100575.88;;;16.49;26.89
46690;BME280;32423;45.398;10.874;2023-04-07T13:54:34;100574.91;;;16.41;26.56
46690;BME280;32423;45.398;10.874;2023-04-07T13:57:28;100577.63;;;16.57;26.47
46690;BME280;32423;45.398;10.874;2023-04-07T14:00:23;100578.41;;;16.57;26.67
46690;BME280;32423;45.398;10.874;2023-04-07T14:03:17;100567.13;;;16.59;26.53
46690;BME280;32423;45.398;10.874;2023-04-07T14:06:12;100569.38;;;16.57;26.52
46690;BME280;32423;45.398;10.874;2023-04-07T14:09:06;100571.31;;;16.56;26.63
46690;BME280;32423;45.398;10.874;2023-04-07T14:12:01;100563.03;;;16.53;26.66
46690;BME280;32423;45.398;10.874;2023-04-07T14:14:56;100565.75;;;16.53;26.51
46690;BME280;32423;45.398;10.874;2023-04-07T14:17:50;100571.31;;;16.56;26.28
46690;BME280;32423;45.398;10.874;2023-04-07T14:20:45;100570.38;;;16.64;26.13
46690;BME280;32423;45.398;10.874;2023-04-07T14:23:39;100557.88;;;16.51;26.27
46690;BME280;32423;45.398;10.874;2023-04-07T14:26:33;100564.09;;;16.48;26.40
46690;BME280;32423;45.398;10.874;2023-04-07T14:29:26;100561.63;;;16.43;25.93
46690;BME280;32423;45.398;10.874;2023-04-07T14:32:17;100575.00;;;16.45;26.09
46690;BME280;32423;45.398;10.874;2023-04-07T14:35:12;100558.88;;;16.43;26.46
46690;BME280;32423;45.398;10.874;2023-04-07T14:38:06;100560.75;;;16.39;26.80
46690;BME280;32423;45.398;10.874;2023-04-07T14:40:59;100557.66;;;16.41;26.50
46690;BME280;32423;45.398;10.874;2023-04-07T14:43:53;100562.44;;;16.44;26.34
46690;BME280;32423;45.398;10.874;2023-04-07T14:46:51;100557.56;;;16.37;26.34
46690;BME280;32423;45.398;10.874;2023-04-07T14:49:45;100550.59;;;16.40;26.17
46690;BME280;32423;45.398;10.874;2023-04-07T14:52:37;100559.34;;;16.45;25.98
46690;BME280;32423;45.398;10.874;2023-04-07T14:55:32;100560.50;;;16.44;26.67
46690;BME280;32423;45.398;10.874;2023-04-07T14:58:26;100553.06;;;16.45;25.97
46690;BME280;32423;45.398;10.874;2023-04-07T15:01:21;100553.69;;;16.38;25.93
46690;BME280;32423;45.398;10.874;2023-04-07T15:04:15;100554.47;;;16.39;26.27
46690;BME280;32423;45.398;10.874;2023-04-07T15:07:10;100558.53;;;16.45;26.36
46690;BME280;32423;45.398;10.874;2023-04-07T15:10:04;100557.00;;;16.47;26.54
46690;BME280;32423;45.398;10.874;2023-04-07T15:12:56;100554.63;;;16.46;26.46
46690;BME280;32423;45.398;10.874;2023-04-07T15:15:51;100550.72;;;16.47;26.38
46690;BME280;32423;45.398;10.874;2023-04-07T15:18:44;100553.13;;;16.48;26.53